createdAt,value
2023-03-19T00:00:39.589Z,18.67
2023-03-19T00:03:06.687Z,13.35
2023-03-19T00:05:33.779Z,16.80
2023-03-19T00:08:00.978Z,19.90
2023-03-19T00:10:27.991Z,14.73
2023-03-19T00:12:54.939Z,17.45
2023-03-19T00:15:22.077Z,15.40
2023-03-19T00:17:49.223Z,17.38
2023-03-19T00:20:18.211Z,15.90
2023-03-19T00:22:45.603Z,14.45
2023-03-19T00:25:12.727Z,17.40
2023-03-19T00:27:39.707Z,18.73
2023-03-19T00:30:07.824Z,17.33
2023-03-19T00:32:36.599Z,15.93
2023-03-19T00:35:06.180Z,15.70
2023-03-19T00:37:33.627Z,19.48
2023-03-19T00:40:00.550Z,17.58
2023-03-19T00:42:27.640Z,17.13
2023-03-19T00:44:54.518Z,19.63
2023-03-19T00:47:22.527Z,19.92
2023-03-19T00:49:49.348Z,21.50
2023-03-19T00:52:16.620Z,22.92
2023-03-19T00:54:43.647Z,18.83
2023-03-19T00:57:10.886Z,21.05
2023-03-19T00:59:37.915Z,23.55
2023-03-19T01:02:05.153Z,24.08
2023-03-19T01:04:32.134Z,23.67
2023-03-19T01:09:26.748Z,24.77
2023-03-19T01:11:53.940Z,27.63
2023-03-19T01:14:21.202Z,33.88
2023-03-19T01:16:48.303Z,33.92
2023-03-19T01:19:16.448Z,39.72
2023-03-19T01:21:46.704Z,40.67
2023-03-19T01:24:18.216Z,39.88
2023-03-19T01:26:48.394Z,42.13
2023-03-19T01:29:35.831Z,44.10
2023-03-19T01:32:13.905Z,43.08
2023-03-19T01:35:12.909Z,39.03
2023-03-19T01:37:39.908Z,42.75
2023-03-19T01:40:09.130Z,41.35
2023-03-19T01:42:54.846Z,51.55
2023-03-19T01:45:45.849Z,50.75
2023-03-19T01:48:52.135Z,48.17
2023-03-19T01:51:26.352Z,50.15
2023-03-19T01:54:14.486Z,42.97
2023-03-19T01:57:05.876Z,46.97
2023-03-19T01:59:56.581Z,46.05
2023-03-19T02:02:43.914Z,51.35
2023-03-19T02:05:28.325Z,50.67
2023-03-19T02:08:05.137Z,50.40
2023-03-19T02:10:32.784Z,52.33
2023-03-19T02:12:59.824Z,53.97
2023-03-19T02:15:27.064Z,50.55
2023-03-19T02:17:54.567Z,51.47
2023-03-19T02:20:35.739Z,60.58
2023-03-19T02:23:25.906Z,53.70
2023-03-19T02:26:12.135Z,51.78
2023-03-19T02:28:44.033Z,50.28
2023-03-19T02:31:13.928Z,50.17
2023-03-19T02:33:41.373Z,48.75
2023-03-19T02:36:14.790Z,50.75
2023-03-19T02:38:44.688Z,47.30
2023-03-19T02:41:11.807Z,38.70
2023-03-19T02:43:41.330Z,47.15
2023-03-19T02:46:13.322Z,43.53
2023-03-19T02:48:41.386Z,39.67
2023-03-19T02:51:08.701Z,42.65
2023-03-19T02:53:36.580Z,46.95
2023-03-19T02:56:03.949Z,37.17
2023-03-19T02:58:30.913Z,40.90
2023-03-19T03:00:58.021Z,45.83
2023-03-19T03:03:25.065Z,48.38
2023-03-19T03:05:52.043Z,45.80
2023-03-19T03:08:19.026Z,53.10
2023-03-19T03:10:46.197Z,56.40
2023-03-19T03:13:13.750Z,51.70
2023-03-19T03:15:40.815Z,48.83
2023-03-19T03:18:07.795Z,46.45
2023-03-19T03:20:34.966Z,49.60
2023-03-19T03:23:02.631Z,47.95
2023-03-19T03:25:30.710Z,45.30
2023-03-19T03:27:57.615Z,46.33
2023-03-19T03:30:25.100Z,56.50
2023-03-19T03:32:52.073Z,57.17
2023-03-19T03:35:22.457Z,59.80
2023-03-19T03:37:50.526Z,50.72
2023-03-19T03:40:18.536Z,57.35
2023-03-19T03:42:45.581Z,54.00
2023-03-19T03:45:14.331Z,67.32
2023-03-19T03:47:44.305Z,54.20
2023-03-19T03:50:12.692Z,62.92
2023-03-19T03:52:40.978Z,60.58
2023-03-19T03:55:09.012Z,56.65
2023-03-19T03:57:36.150Z,56.25
2023-03-19T04:00:04.819Z,52.90
2023-03-19T04:02:40.197Z,52.05
2023-03-19T04:05:09.219Z,66.28
2023-03-19T04:07:37.701Z,54.80
2023-03-19T04:10:05.727Z,60.08
2023-03-19T04:12:32.860Z,69.28
2023-03-19T04:14:59.772Z,67.80
2023-03-19T04:17:26.784Z,57.80
2023-03-19T04:19:53.765Z,56.25
2023-03-19T04:22:20.838Z,60.78
2023-03-19T04:24:47.773Z,63.22
2023-03-19T04:27:14.765Z,55.13
2023-03-19T04:29:42.035Z,63.47
2023-03-19T04:32:09.466Z,62.92
2023-03-19T04:34:37.389Z,64.32
2023-03-19T04:37:04.297Z,67.65
2023-03-19T04:39:33.826Z,62.80
2023-03-19T04:42:00.986Z,51.20
2023-03-19T04:44:34.667Z,55.72
2023-03-19T04:47:02.446Z,61.35
2023-03-19T04:49:41.559Z,58.50
2023-03-19T04:52:09.366Z,53.97
2023-03-19T04:54:36.206Z,55.80
2023-03-19T04:57:03.505Z,62.63
2023-03-19T04:59:35.284Z,53.35
2023-03-19T05:02:02.648Z,56.20
2023-03-19T05:04:30.845Z,60.15
2023-03-19T05:07:03.271Z,55.47
2023-03-19T05:09:30.962Z,59.55
2023-03-19T05:11:58.288Z,54.30
2023-03-19T05:14:25.881Z,59.53
2023-03-19T05:17:07.732Z,52.53
2023-03-19T05:19:52.445Z,57.35
2023-03-19T05:22:20.307Z,61.20
2023-03-19T05:24:47.251Z,57.20
2023-03-19T05:27:14.619Z,57.42
2023-03-19T05:29:48.193Z,59.40
2023-03-19T05:32:25.489Z,57.17
2023-03-19T05:34:52.482Z,60.00
2023-03-19T05:37:19.772Z,57.97
2023-03-19T05:39:55.482Z,58.00
2023-03-19T05:42:22.499Z,53.38
2023-03-19T05:44:49.403Z,57.55
2023-03-19T05:47:26.204Z,67.70
2023-03-19T05:49:56.421Z,66.57
2023-03-19T05:52:24.046Z,52.63
2023-03-19T05:54:52.941Z,58.45
2023-03-19T05:57:36.965Z,62.85
2023-03-19T06:00:16.286Z,61.10
2023-03-19T06:02:43.889Z,72.15
2023-03-19T06:05:31.380Z,61.72
2023-03-19T06:08:05.594Z,63.90
2023-03-19T06:10:47.129Z,65.63
2023-03-19T06:13:14.568Z,65.10
2023-03-19T06:15:49.717Z,63.47
2023-03-19T06:18:27.398Z,63.47
2023-03-19T06:20:54.947Z,63.20
2023-03-19T06:23:21.761Z,60.10
2023-03-19T06:25:49.017Z,66.00
2023-03-19T06:28:18.065Z,57.92
2023-03-19T06:30:46.051Z,51.13
2023-03-19T06:33:32.602Z,61.85
2023-03-19T06:36:00.796Z,53.28
2023-03-19T06:38:30.752Z,71.97
2023-03-19T06:40:57.927Z,70.30
2023-03-19T06:43:24.737Z,59.95
2023-03-19T06:45:52.122Z,65.05
2023-03-19T06:48:19.058Z,61.08
2023-03-19T06:50:47.015Z,67.88
2023-03-19T06:53:14.719Z,56.90
2023-03-19T06:55:41.956Z,65.15
2023-03-19T06:58:08.756Z,53.13
2023-03-19T07:00:35.987Z,60.95
2023-03-19T07:03:03.092Z,64.35
2023-03-19T07:05:30.043Z,58.60
2023-03-19T07:07:56.881Z,59.35
2023-03-19T07:10:23.812Z,62.92
2023-03-19T07:12:50.625Z,54.38
2023-03-19T07:15:20.211Z,56.83
2023-03-19T07:17:48.102Z,58.80
2023-03-19T07:20:15.369Z,58.45
2023-03-19T07:22:42.635Z,58.75
2023-03-19T07:25:09.933Z,55.65
2023-03-19T07:27:36.860Z,54.38
2023-03-19T07:30:04.186Z,55.40
2023-03-19T07:32:31.659Z,56.53
2023-03-19T07:34:58.504Z,64.88
2023-03-19T07:37:25.644Z,72.10
2023-03-19T07:39:52.531Z,57.38
2023-03-19T07:42:19.439Z,59.95
2023-03-19T07:44:46.243Z,61.25
2023-03-19T07:47:27.931Z,43.17
2023-03-19T07:49:55.866Z,38.60
2023-03-19T07:52:22.871Z,37.95
2023-03-19T07:54:50.578Z,32.90
2023-03-19T07:57:17.511Z,37.45
2023-03-19T07:59:44.512Z,25.98
2023-03-19T08:02:15.025Z,29.95
2023-03-19T08:04:42.277Z,19.13
2023-03-19T08:07:11.031Z,23.25
2023-03-19T08:09:39.424Z,28.60
2023-03-19T08:12:07.187Z,21.27
2023-03-19T08:14:34.552Z,26.52
2023-03-19T08:17:02.057Z,17.48
2023-03-19T08:19:29.135Z,21.42
2023-03-19T08:21:56.521Z,16.77
2023-03-19T08:24:23.757Z,21.30
2023-03-19T08:26:50.838Z,18.95
2023-03-19T08:29:19.104Z,13.45
2023-03-19T08:31:46.364Z,22.67
2023-03-19T08:34:13.388Z,23.05
2023-03-19T08:36:40.664Z,18.45
2023-03-19T08:39:08.213Z,18.27
2023-03-19T08:41:35.503Z,8.20
2023-03-19T08:44:02.920Z,8.95
2023-03-19T08:46:30.050Z,18.45
2023-03-19T08:48:57.105Z,7.88
2023-03-19T08:51:26.092Z,13.90
2023-03-19T08:53:53.304Z,9.20
2023-03-19T08:56:21.765Z,11.15
2023-03-19T08:58:49.046Z,11.27
2023-03-19T09:01:16.734Z,11.90
2023-03-19T09:03:45.389Z,6.05
2023-03-19T09:06:14.644Z,7.68
2023-03-19T09:08:42.361Z,9.63
2023-03-19T09:11:10.932Z,7.95
2023-03-19T09:13:38.102Z,7.30
2023-03-19T09:16:05.848Z,7.22
2023-03-19T09:18:33.948Z,8.18
2023-03-19T09:21:01.924Z,8.48
2023-03-19T09:23:28.944Z,8.15
2023-03-19T09:25:55.805Z,8.63
2023-03-19T09:28:23.342Z,7.63
2023-03-19T09:30:51.606Z,7.70
2023-03-19T09:33:20.874Z,6.93
2023-03-19T09:35:53.016Z,5.55
2023-03-19T09:38:21.828Z,7.32
2023-03-19T09:41:01.317Z,4.55
2023-03-19T09:43:49.447Z,10.70
2023-03-19T09:46:24.157Z,9.25
2023-03-19T09:48:57.982Z,5.60
2023-03-19T09:51:47.133Z,5.47
2023-03-19T09:54:32.383Z,4.07
2023-03-19T09:57:00.231Z,7.47
2023-03-19T09:59:29.410Z,8.40
2023-03-19T10:02:17.966Z,6.20
2023-03-19T10:05:08.215Z,6.60
2023-03-19T10:07:41.977Z,6.97
2023-03-19T10:10:27.676Z,4.90
2023-03-19T10:13:27.226Z,3.67
2023-03-19T10:15:55.132Z,4.65
2023-03-19T10:18:25.564Z,5.90
2023-03-19T10:20:59.657Z,4.32
2023-03-19T10:23:32.555Z,7.30
2023-03-19T10:26:04.413Z,10.05
2023-03-19T10:28:31.880Z,4.32
2023-03-19T10:31:40.611Z,5.13
2023-03-19T10:34:33.598Z,5.13
2023-03-19T10:37:03.751Z,6.70
2023-03-19T10:39:36.751Z,4.68
2023-03-19T10:42:22.441Z,3.25
2023-03-19T10:45:08.520Z,5.40
2023-03-19T10:50:06.247Z,3.22
2023-03-19T10:52:35.746Z,6.63
2023-03-19T10:55:12.636Z,6.38
2023-03-19T10:57:43.432Z,8.70
2023-03-19T11:00:20.425Z,7.70
2023-03-19T11:02:49.658Z,5.32
2023-03-19T11:05:32.035Z,4.97
2023-03-19T11:08:03.037Z,3.50
2023-03-19T11:10:33.477Z,4.47
2023-03-19T11:13:05.959Z,6.13
2023-03-19T11:15:39.100Z,4.38
2023-03-19T11:18:15.708Z,4.30
2023-03-19T11:20:43.699Z,5.65
2023-03-19T11:23:17.311Z,8.13
2023-03-19T11:25:55.429Z,6.90
2023-03-19T11:28:26.710Z,4.40
2023-03-19T11:31:24.494Z,5.47
2023-03-19T11:34:45.659Z,5.35
2023-03-19T11:37:28.588Z,10.18
2023-03-19T11:40:01.587Z,5.85
2023-03-19T11:42:34.274Z,3.17
2023-03-19T11:45:31.577Z,5.35
2023-03-19T11:48:17.082Z,5.88
2023-03-19T11:51:09.822Z,11.10
2023-03-19T11:54:04.447Z,16.08
2023-03-19T11:56:35.787Z,11.15
2023-03-19T11:59:30.697Z,12.77
2023-03-19T12:02:33.542Z,17.67
2023-03-19T12:05:04.496Z,17.75
2023-03-19T12:07:50.808Z,13.27
2023-03-19T12:10:42.666Z,20.92
2023-03-19T12:13:19.599Z,13.60
2023-03-19T12:16:25.273Z,15.27
2023-03-19T12:19:23.898Z,10.43
2023-03-19T12:22:03.269Z,18.55
2023-03-19T12:25:16.934Z,19.88
2023-03-19T12:28:13.016Z,15.50
2023-03-19T12:30:49.296Z,16.83
2023-03-19T12:34:09.692Z,19.95
2023-03-19T12:36:47.064Z,21.45
2023-03-19T12:39:22.461Z,15.38
2023-03-19T12:41:51.323Z,20.95
2023-03-19T12:44:39.290Z,13.63
2023-03-19T12:47:18.691Z,17.30
2023-03-19T12:50:14.413Z,22.08
2023-03-19T12:52:51.571Z,25.85
2023-03-19T12:55:37.472Z,16.73
2023-03-19T13:00:50.883Z,26.00
2023-03-19T13:03:40.066Z,21.48
2023-03-19T13:06:24.483Z,14.43
2023-03-19T13:09:05.159Z,17.55
2023-03-19T13:11:45.596Z,21.02
2023-03-19T13:14:33.650Z,18.38
2023-03-19T13:17:28.618Z,22.17
2023-03-19T13:19:56.956Z,20.85
2023-03-19T13:22:33.083Z,15.48
2023-03-19T13:25:00.900Z,14.93
2023-03-19T13:27:32.078Z,16.70
2023-03-19T13:30:10.256Z,18.00
2023-03-19T13:32:45.100Z,17.33
2023-03-19T13:35:27.331Z,25.20
2023-03-19T13:38:17.511Z,20.88
2023-03-19T13:40:46.013Z,17.05
2023-03-19T13:43:29.057Z,19.70
2023-03-19T13:46:17.414Z,21.10
2023-03-19T13:48:47.712Z,22.23
2023-03-19T13:51:23.949Z,21.73
2023-03-19T13:54:13.524Z,20.67
2023-03-19T13:57:01.065Z,20.08
2023-03-19T13:59:32.767Z,22.08
2023-03-19T14:02:01.602Z,15.48
2023-03-19T14:04:34.238Z,21.73
2023-03-19T14:07:19.630Z,16.15
2023-03-19T14:10:14.455Z,16.58
2023-03-19T14:12:44.140Z,16.65
2023-03-19T14:15:10.966Z,17.23
2023-03-19T14:17:42.525Z,14.85
2023-03-19T14:20:16.699Z,15.68
2023-03-19T14:25:53.892Z,20.98
2023-03-19T14:28:27.328Z,15.50
2023-03-19T14:30:55.990Z,21.33
2023-03-19T14:33:28.919Z,20.13
2023-03-19T14:35:57.443Z,22.63
2023-03-19T14:38:47.769Z,22.85
2023-03-19T14:41:19.373Z,20.20
2023-03-19T14:43:55.662Z,12.18
2023-03-19T14:46:50.641Z,14.48
2023-03-19T14:49:42.269Z,15.55
2023-03-19T14:52:15.703Z,13.68
2023-03-19T14:55:02.334Z,8.95
2023-03-19T14:57:34.702Z,13.02
2023-03-19T15:00:06.516Z,17.85
2023-03-19T15:02:46.901Z,16.17
2023-03-19T15:05:27.189Z,13.85
2023-03-19T15:08:02.427Z,17.95
2023-03-19T15:10:54.136Z,16.95
2023-03-19T15:13:45.968Z,16.25
2023-03-19T15:16:26.728Z,17.05
2023-03-19T15:18:54.029Z,20.02
2023-03-19T15:21:21.627Z,20.27
2023-03-19T15:23:49.308Z,18.77
2023-03-19T15:26:18.601Z,12.73
2023-03-19T15:28:53.913Z,20.85
2023-03-19T15:31:38.286Z,15.38
2023-03-19T15:34:39.459Z,19.55
2023-03-19T15:37:12.766Z,14.95
2023-03-19T15:39:49.787Z,13.65
2023-03-19T15:42:19.170Z,14.25
2023-03-19T15:45:10.423Z,16.27
2023-03-19T15:47:53.916Z,28.92
2023-03-19T15:50:24.276Z,14.45
2023-03-19T15:53:02.659Z,14.05
2023-03-19T15:55:30.319Z,12.90
2023-03-19T15:58:03.083Z,14.45
2023-03-19T16:00:30.359Z,14.82
2023-03-19T16:02:57.420Z,15.82
2023-03-19T16:05:25.673Z,15.88
2023-03-19T16:08:04.188Z,13.40
2023-03-19T16:10:43.304Z,9.18
2023-03-19T16:13:32.591Z,10.10
2023-03-19T16:16:08.628Z,11.70
2023-03-19T16:19:02.155Z,14.77
2023-03-19T16:21:41.222Z,12.27
2023-03-19T16:24:30.816Z,13.35
2023-03-19T16:26:58.742Z,6.97
2023-03-19T16:29:38.640Z,13.65
2023-03-19T16:32:29.395Z,10.10
2023-03-19T16:35:04.204Z,11.02
2023-03-19T16:37:40.332Z,8.68
2023-03-19T16:40:13.092Z,11.38
2023-03-19T16:42:45.305Z,11.32
2023-03-19T16:45:18.140Z,7.53
2023-03-19T16:47:50.154Z,13.00
2023-03-19T16:50:19.121Z,9.25
2023-03-19T16:52:47.466Z,8.68
2023-03-19T16:55:24.230Z,8.88
2023-03-19T16:58:07.209Z,11.10
2023-03-19T17:00:34.474Z,8.82
2023-03-19T17:03:01.724Z,10.32
2023-03-19T17:05:29.696Z,10.68
2023-03-19T17:07:56.692Z,11.77
2023-03-19T17:10:27.558Z,8.63
2023-03-19T17:12:56.421Z,9.05
2023-03-19T17:15:28.628Z,9.88
2023-03-19T17:17:55.906Z,14.27
2023-03-19T17:20:30.293Z,8.73
2023-03-19T17:22:57.246Z,8.85
2023-03-19T17:25:24.890Z,8.82
2023-03-19T17:27:52.163Z,9.98
2023-03-19T17:30:19.048Z,9.15
2023-03-19T17:32:49.553Z,13.05
2023-03-19T17:35:19.823Z,12.32
2023-03-19T17:37:47.588Z,13.27
2023-03-19T17:40:19.069Z,14.35
2023-03-19T17:42:46.435Z,12.90
2023-03-19T17:45:18.113Z,13.82
2023-03-19T17:47:49.226Z,8.60
2023-03-19T17:50:36.719Z,11.18
2023-03-19T17:53:06.030Z,16.02
2023-03-19T17:55:32.929Z,14.02
2023-03-19T17:57:59.903Z,16.45
2023-03-19T18:00:26.922Z,27.58
2023-03-19T18:02:54.973Z,21.73
2023-03-19T18:05:25.404Z,22.75
2023-03-19T18:07:55.420Z,15.25
2023-03-19T18:10:26.660Z,17.75
2023-03-19T18:12:54.767Z,12.63
2023-03-19T18:15:22.280Z,18.52
2023-03-19T18:17:57.697Z,13.95
2023-03-19T18:22:53.518Z,14.75
2023-03-19T18:25:25.780Z,20.13
2023-03-19T18:27:53.416Z,20.70
2023-03-19T18:30:22.507Z,14.55
2023-03-19T18:32:56.241Z,19.10
2023-03-19T18:35:45.019Z,24.73
2023-03-19T18:38:21.062Z,20.83
2023-03-19T18:40:48.975Z,15.35
2023-03-19T18:43:16.585Z,16.48
2023-03-19T18:45:45.920Z,21.20
2023-03-19T18:48:24.515Z,18.50
2023-03-19T18:50:52.200Z,25.75
2023-03-19T18:53:19.602Z,21.08
2023-03-19T18:55:47.372Z,20.17
2023-03-19T18:58:21.781Z,27.52
2023-03-19T19:00:52.240Z,23.97
2023-03-19T19:03:26.012Z,20.90
2023-03-19T19:05:53.855Z,24.67
2023-03-19T19:08:21.395Z,24.92
2023-03-19T19:11:01.859Z,21.65
2023-03-19T19:13:35.063Z,19.40
2023-03-19T19:16:05.298Z,19.25
2023-03-19T19:18:32.624Z,15.88
2023-03-19T19:21:01.931Z,21.08
2023-03-19T19:23:30.303Z,23.45
2023-03-19T19:25:57.330Z,30.58
2023-03-19T19:28:27.770Z,22.10
2023-03-19T19:30:57.515Z,17.23
2023-03-19T19:33:27.909Z,13.90
2023-03-19T19:35:55.397Z,29.23
2023-03-19T19:38:22.326Z,23.92
2023-03-19T19:40:52.952Z,22.70
2023-03-19T19:43:23.533Z,18.92
2023-03-19T19:45:52.939Z,24.17
2023-03-19T19:48:25.620Z,28.70
2023-03-19T19:50:54.026Z,23.48
2023-03-19T19:53:23.265Z,21.13
2023-03-19T19:55:50.323Z,27.95
2023-03-19T19:58:29.025Z,24.85
2023-03-19T20:01:03.356Z,23.38
2023-03-19T20:03:33.228Z,21.58
2023-03-19T20:06:01.476Z,24.42
2023-03-19T20:08:28.869Z,26.60
2023-03-19T20:10:57.006Z,26.27
2023-03-19T20:13:28.134Z,23.52
2023-03-19T20:15:57.389Z,22.50
2023-03-19T20:18:29.333Z,23.10
2023-03-19T20:20:57.178Z,28.92
2023-03-19T20:23:24.255Z,23.88
2023-03-19T20:25:51.754Z,26.48
2023-03-19T20:28:30.534Z,27.73
2023-03-19T20:30:57.568Z,21.00
2023-03-19T20:33:24.968Z,21.33
2023-03-19T20:35:52.337Z,34.63
2023-03-19T20:38:19.241Z,18.80
2023-03-19T20:40:48.870Z,27.80
2023-03-19T20:43:33.637Z,25.15
2023-03-19T20:46:04.438Z,28.85
2023-03-19T20:48:32.940Z,26.02
2023-03-19T20:51:01.493Z,20.17
2023-03-19T20:53:28.873Z,25.85
2023-03-19T20:55:56.525Z,27.10
2023-03-19T20:58:30.139Z,35.83
2023-03-19T21:00:58.541Z,28.27
2023-03-19T21:03:28.402Z,31.50
2023-03-19T21:06:02.574Z,29.25
2023-03-19T21:08:32.357Z,32.22
2023-03-19T21:11:00.350Z,28.83
2023-03-19T21:13:27.658Z,23.65
2023-03-19T21:15:54.677Z,25.20
2023-03-19T21:18:21.681Z,23.05
2023-03-19T21:20:55.704Z,27.42
2023-03-19T21:23:32.109Z,26.48
2023-03-19T21:26:03.756Z,34.15
2023-03-19T21:28:41.343Z,30.25
2023-03-19T21:31:20.570Z,29.27
2023-03-19T21:33:49.364Z,26.00
2023-03-19T21:36:16.863Z,30.98
2023-03-19T21:38:44.016Z,23.65
2023-03-19T21:41:30.319Z,21.25
2023-03-19T21:44:00.930Z,25.17
2023-03-19T21:46:30.704Z,26.95
2023-03-19T21:48:58.782Z,24.83
2023-03-19T21:51:28.553Z,26.95
2023-03-19T21:53:55.902Z,18.02
2023-03-19T21:56:37.952Z,26.15
2023-03-19T21:59:15.985Z,24.30
2023-03-19T22:01:43.180Z,26.88
2023-03-19T22:04:10.490Z,27.27
2023-03-19T22:06:37.659Z,26.10
2023-03-19T22:09:04.710Z,24.00
2023-03-19T22:11:37.708Z,26.00
2023-03-19T22:14:06.549Z,23.08
2023-03-19T22:16:33.932Z,26.27
2023-03-19T22:19:01.626Z,27.02
2023-03-19T22:21:30.551Z,21.92
2023-03-19T22:23:57.585Z,19.75
2023-03-19T22:26:24.341Z,21.10
2023-03-19T22:28:51.415Z,17.90
2023-03-19T22:31:18.372Z,24.40
2023-03-19T22:33:45.412Z,23.50
2023-03-19T22:36:15.839Z,21.23
2023-03-19T22:38:44.928Z,19.73
2023-03-19T22:41:34.342Z,22.42
2023-03-19T22:44:05.612Z,23.75
2023-03-19T22:46:32.764Z,23.23
2023-03-19T22:48:59.705Z,26.10
2023-03-19T22:51:28.116Z,19.63
2023-03-19T22:53:55.461Z,14.75
2023-03-19T22:56:22.496Z,20.55
2023-03-19T22:58:49.383Z,23.58
2023-03-19T23:01:29.638Z,19.85
2023-03-19T23:03:57.150Z,18.48
2023-03-19T23:06:30.664Z,22.30
2023-03-19T23:08:58.386Z,20.30
2023-03-19T23:11:25.551Z,20.42
2023-03-19T23:13:54.644Z,21.05
2023-03-19T23:16:25.205Z,18.33
2023-03-19T23:21:21.355Z,15.80
2023-03-19T23:23:48.395Z,20.88
2023-03-19T23:26:37.371Z,22.98
2023-03-19T23:29:06.510Z,21.77
2023-03-19T23:31:34.394Z,23.05
2023-03-19T23:34:01.605Z,21.67
2023-03-19T23:36:28.588Z,19.05
2023-03-19T23:38:59.288Z,17.90
2023-03-19T23:41:26.691Z,20.38
2023-03-19T23:43:54.929Z,20.38
2023-03-19T23:46:22.212Z,24.27
2023-03-19T23:48:49.111Z,17.80
2023-03-19T23:51:17.430Z,21.20
2023-03-19T23:53:45.044Z,21.95
2023-03-19T23:56:24.446Z,25.38
2023-03-19T23:58:53.541Z,18.17
